sensor_id;sensor_type;location;lat;lon;timestamp;temperature;humidity
74901;DHT22;63461;51.416;6.758;2022-09-12T00:01:09;15.50;99.90
74901;DHT22;63461;51.416;6.758;2022-09-12T00:03:36;15.50;99.90
74901;DHT22;63461;51.416;6.758;2022-09-12T00:08:38;15.40;99.90
74901;DHT22;63461;51.416;6.758;2022-09-12T00:11:07;15.40;99.90
74901;DHT22;63461;51.416;6.758;2022-09-12T00:13:33;15.40;99.90
74901;DHT22;63461;51.416;6.758;2022-09-12T00:15:59;15.40;99.90
74901;DHT22;63461;51.416;6.758;2022-09-12T00:18:25;15.40;99.90
74901;DHT22;63461;51.416;6.758;2022-09-12T00:20:51;15.30;99.90
74901;DHT22;63461;51.416;6.758;2022-09-12T00:23:17;15.30;99.90
74901;DHT22;63461;51.416;6.758;2022-09-12T00:25:44;15.30;99.90
74901;DHT22;63461;51.416;6.758;2022-09-12T00:28:11;15.30;99.90
74901;DHT22;63461;51.416;6.758;2022-09-12T00:30:42;15.20;99.90
74901;DHT22;63461;51.416;6.758;2022-09-12T00:33:09;15.20;99.90
74901;DHT22;63461;51.416;6.758;2022-09-12T00:35:47;15.20;99.90
74901;DHT22;63461;51.416;6.758;2022-09-12T00:38:14;15.20;99.90
74901;DHT22;63461;51.416;6.758;2022-09-12T00:40:41;15.20;99.90
74901;DHT22;63461;51.416;6.758;2022-09-12T00:43:34;15.20;99.90
74901;DHT22;63461;51.416;6.758;2022-09-12T00:46:36;15.20;99.90
74901;DHT22;63461;51.416;6.758;2022-09-12T00:51:41;15.20;99.90
74901;DHT22;63461;51.416;6.758;2022-09-12T00:54:13;15.20;99.90
74901;DHT22;63461;51.416;6.758;2022-09-12T00:56:43;15.20;99.90
74901;DHT22;63461;51.416;6.758;2022-09-12T00:59:17;15.10;99.90
74901;DHT22;63461;51.416;6.758;2022-09-12T01:01:48;15.10;99.90
74901;DHT22;63461;51.416;6.758;2022-09-12T01:04:15;15.10;99.90
74901;DHT22;63461;51.416;6.758;2022-09-12T01:06:42;15.10;99.90
74901;DHT22;63461;51.416;6.758;2022-09-12T01:09:11;15.10;99.90
74901;DHT22;63461;51.416;6.758;2022-09-12T01:11:39;15.10;99.90
74901;DHT22;63461;51.416;6.758;2022-09-12T01:14:05;15.10;99.90
74901;DHT22;63461;51.416;6.758;2022-09-12T01:16:34;15.10;99.90
74901;DHT22;63461;51.416;6.758;2022-09-12T01:30:46;15.00;99.90
74901;DHT22;63461;51.416;6.758;2022-09-12T01:33:17;15.00;99.90
74901;DHT22;63461;51.416;6.758;2022-09-12T01:36:12;14.90;99.90
74901;DHT22;63461;51.416;6.758;2022-09-12T01:41:41;14.90;99.90
74901;DHT22;63461;51.416;6.758;2022-09-12T01:44:54;14.90;99.90
74901;DHT22;63461;51.416;6.758;2022-09-12T01:52:41;14.80;99.90
74901;DHT22;63461;51.416;6.758;2022-09-12T01:55:14;14.90;99.90
74901;DHT22;63461;51.416;6.758;2022-09-12T02:00:15;14.80;99.90
74901;DHT22;63461;51.416;6.758;2022-09-12T02:02:59;14.70;99.90
74901;DHT22;63461;51.416;6.758;2022-09-12T02:05:46;14.70;99.90
74901;DHT22;63461;51.416;6.758;2022-09-12T02:08:21;14.70;99.90
74901;DHT22;63461;51.416;6.758;2022-09-12T02:10:56;14.70;99.90
74901;DHT22;63461;51.416;6.758;2022-09-12T02:13:42;14.70;99.90
74901;DHT22;63461;51.416;6.758;2022-09-12T02:16:21;14.70;99.90
74901;DHT22;63461;51.416;6.758;2022-09-12T02:18:52;14.60;99.90
74901;DHT22;63461;51.416;6.758;2022-09-12T02:21:21;14.60;99.90
74901;DHT22;63461;51.416;6.758;2022-09-12T02:23:54;14.60;99.90
74901;DHT22;63461;51.416;6.758;2022-09-12T02:26:26;14.60;99.90
74901;DHT22;63461;51.416;6.758;2022-09-12T02:28:53;14.60;99.90
74901;DHT22;63461;51.416;6.758;2022-09-12T02:31:39;14.60;99.90
74901;DHT22;63461;51.416;6.758;2022-09-12T02:39:38;14.50;99.90
74901;DHT22;63461;51.416;6.758;2022-09-12T02:42:04;14.50;99.90
74901;DHT22;63461;51.416;6.758;2022-09-12T02:44:32;14.60;99.90
74901;DHT22;63461;51.416;6.758;2022-09-12T02:47:38;14.60;99.90
74901;DHT22;63461;51.416;6.758;2022-09-12T02:49:57;14.60;99.90
74901;DHT22;63461;51.416;6.758;2022-09-12T02:52:24;14.50;99.90
74901;DHT22;63461;51.416;6.758;2022-09-12T02:54:51;14.50;99.90
74901;DHT22;63461;51.416;6.758;2022-09-12T02:57:20;14.50;99.90
74901;DHT22;63461;51.416;6.758;2022-09-12T02:59:47;14.50;99.90
74901;DHT22;63461;51.416;6.758;2022-09-12T03:06:05;14.50;99.90
74901;DHT22;63461;51.416;6.758;2022-09-12T03:11:29;14.40;99.90
74901;DHT22;63461;51.416;6.758;2022-09-12T03:17:08;14.40;99.90
74901;DHT22;63461;51.416;6.758;2022-09-12T03:19:55;14.40;99.90
74901;DHT22;63461;51.416;6.758;2022-09-12T03:22:52;14.40;99.90
74901;DHT22;63461;51.416;6.758;2022-09-12T03:25:47;14.40;99.90
74901;DHT22;63461;51.416;6.758;2022-09-12T03:28:15;14.30;99.90
74901;DHT22;63461;51.416;6.758;2022-09-12T03:30:44;14.30;99.90
74901;DHT22;63461;51.416;6.758;2022-09-12T03:33:11;14.40;99.90
74901;DHT22;63461;51.416;6.758;2022-09-12T03:35:38;14.30;99.90
74901;DHT22;63461;51.416;6.758;2022-09-12T03:38:04;14.40;99.90
74901;DHT22;63461;51.416;6.758;2022-09-12T03:40:39;14.40;99.90
74901;DHT22;63461;51.416;6.758;2022-09-12T03:43:06;14.30;99.90
74901;DHT22;63461;51.416;6.758;2022-09-12T03:45:33;14.40;99.90
74901;DHT22;63461;51.416;6.758;2022-09-12T03:47:59;14.30;99.90
74901;DHT22;63461;51.416;6.758;2022-09-12T03:50:25;14.30;99.90
74901;DHT22;63461;51.416;6.758;2022-09-12T03:52:52;14.30;99.90
74901;DHT22;63461;51.416;6.758;2022-09-12T03:55:18;14.30;99.90
74901;DHT22;63461;51.416;6.758;2022-09-12T03:57:46;14.30;99.90
74901;DHT22;63461;51.416;6.758;2022-09-12T04:00:12;14.30;99.90
74901;DHT22;63461;51.416;6.758;2022-09-12T04:02:41;14.30;99.90
74901;DHT22;63461;51.416;6.758;2022-09-12T04:05:07;14.30;99.90
74901;DHT22;63461;51.416;6.758;2022-09-12T04:07:32;14.30;99.90
74901;DHT22;63461;51.416;6.758;2022-09-12T04:09:58;14.30;99.90
74901;DHT22;63461;51.416;6.758;2022-09-12T04:12:24;14.30;99.90
74901;DHT22;63461;51.416;6.758;2022-09-12T04:14:50;14.20;99.90
74901;DHT22;63461;51.416;6.758;2022-09-12T04:17:15;14.20;99.90
74901;DHT22;63461;51.416;6.758;2022-09-12T04:19:41;14.20;99.90
74901;DHT22;63461;51.416;6.758;2022-09-12T04:22:07;14.20;99.90
74901;DHT22;63461;51.416;6.758;2022-09-12T04:24:33;14.20;99.90
74901;DHT22;63461;51.416;6.758;2022-09-12T04:26:58;14.20;99.90
74901;DHT22;63461;51.416;6.758;2022-09-12T04:29:24;14.30;99.90
74901;DHT22;63461;51.416;6.758;2022-09-12T04:31:50;14.20;99.90
74901;DHT22;63461;51.416;6.758;2022-09-12T04:34:16;14.30;99.90
74901;DHT22;63461;51.416;6.758;2022-09-12T04:36:42;14.30;99.90
74901;DHT22;63461;51.416;6.758;2022-09-12T04:39:09;14.30;99.90
74901;DHT22;63461;51.416;6.758;2022-09-12T04:41:37;14.30;99.90
74901;DHT22;63461;51.416;6.758;2022-09-12T04:44:09;14.30;99.90
74901;DHT22;63461;51.416;6.758;2022-09-12T04:46:41;14.30;99.90
74901;DHT22;63461;51.416;6.758;2022-09-12T04:49:08;14.30;99.90
74901;DHT22;63461;51.416;6.758;2022-09-12T04:51:36;14.30;99.90
74901;DHT22;63461;51.416;6.758;2022-09-12T04:54:09;14.30;99.90
74901;DHT22;63461;51.416;6.758;2022-09-12T04:56:40;14.30;99.90
74901;DHT22;63461;51.416;6.758;2022-09-12T04:59:07;14.30;99.90
74901;DHT22;63461;51.416;6.758;2022-09-12T05:01:34;14.30;99.90
74901;DHT22;63461;51.416;6.758;2022-09-12T05:04:00;14.20;99.90
74901;DHT22;63461;51.416;6.758;2022-09-12T05:06:32;14.20;99.90
74901;DHT22;63461;51.416;6.758;2022-09-12T05:08:59;14.20;99.90
74901;DHT22;63461;51.416;6.758;2022-09-12T05:11:28;14.20;99.90
74901;DHT22;63461;51.416;6.758;2022-09-12T05:13:55;14.30;99.90
74901;DHT22;63461;51.416;6.758;2022-09-12T05:16:21;14.30;99.90
74901;DHT22;63461;51.416;6.758;2022-09-12T05:18:47;14.30;99.90
74901;DHT22;63461;51.416;6.758;2022-09-12T05:21:17;14.30;99.90
74901;DHT22;63461;51.416;6.758;2022-09-12T05:23:44;14.30;99.90
74901;DHT22;63461;51.416;6.758;2022-09-12T05:26:13;14.40;99.90
74901;DHT22;63461;51.416;6.758;2022-09-12T05:28:39;14.50;99.90
74901;DHT22;63461;51.416;6.758;2022-09-12T05:31:11;14.50;99.90
74901;DHT22;63461;51.416;6.758;2022-09-12T05:33:39;14.60;99.90
74901;DHT22;63461;51.416;6.758;2022-09-12T05:36:08;14.60;99.90
74901;DHT22;63461;51.416;6.758;2022-09-12T05:38:34;14.70;99.90
74901;DHT22;63461;51.416;6.758;2022-09-12T05:41:07;14.70;99.90
74901;DHT22;63461;51.416;6.758;2022-09-12T05:43:35;14.80;99.90
74901;DHT22;63461;51.416;6.758;2022-09-12T05:46:07;14.90;99.90
74901;DHT22;63461;51.416;6.758;2022-09-12T05:48:34;14.90;99.90
74901;DHT22;63461;51.416;6.758;2022-09-12T05:51:16;15.00;99.90
74901;DHT22;63461;51.416;6.758;2022-09-12T05:53:45;14.90;99.90
74901;DHT22;63461;51.416;6.758;2022-09-12T05:56:16;15.00;99.90
74901;DHT22;63461;51.416;6.758;2022-09-12T05:58:45;14.90;99.90
74901;DHT22;63461;51.416;6.758;2022-09-12T06:01:14;15.00;99.90
74901;DHT22;63461;51.416;6.758;2022-09-12T06:03:49;15.10;99.90
74901;DHT22;63461;51.416;6.758;2022-09-12T06:06:17;15.10;99.90
74901;DHT22;63461;51.416;6.758;2022-09-12T06:08:45;15.20;99.90
74901;DHT22;63461;51.416;6.758;2022-09-12T06:11:13;15.20;99.90
74901;DHT22;63461;51.416;6.758;2022-09-12T06:13:40;15.20;99.90
74901;DHT22;63461;51.416;6.758;2022-09-12T06:16:12;15.30;99.90
74901;DHT22;63461;51.416;6.758;2022-09-12T06:18:39;15.30;99.90
74901;DHT22;63461;51.416;6.758;2022-09-12T06:21:07;15.30;99.90
74901;DHT22;63461;51.416;6.758;2022-09-12T06:23:34;15.40;99.90
74901;DHT22;63461;51.416;6.758;2022-09-12T06:26:00;15.40;99.90
74901;DHT22;63461;51.416;6.758;2022-09-12T06:28:27;15.50;99.90
74901;DHT22;63461;51.416;6.758;2022-09-12T06:30:53;15.60;99.90
74901;DHT22;63461;51.416;6.758;2022-09-12T06:33:19;15.70;99.90
74901;DHT22;63461;51.416;6.758;2022-09-12T06:35:45;15.70;99.90
74901;DHT22;63461;51.416;6.758;2022-09-12T06:38:11;15.80;99.90
74901;DHT22;63461;51.416;6.758;2022-09-12T06:40:41;15.90;99.90
74901;DHT22;63461;51.416;6.758;2022-09-12T06:43:11;16.00;99.90
74901;DHT22;63461;51.416;6.758;2022-09-12T06:45:38;16.00;99.90
74901;DHT22;63461;51.416;6.758;2022-09-12T06:48:04;16.10;99.90
74901;DHT22;63461;51.416;6.758;2022-09-12T06:50:30;16.10;99.90
74901;DHT22;63461;51.416;6.758;2022-09-12T06:52:56;16.20;99.90
74901;DHT22;63461;51.416;6.758;2022-09-12T06:55:22;16.20;99.90
74901;DHT22;63461;51.416;6.758;2022-09-12T06:57:49;16.30;99.90
74901;DHT22;63461;51.416;6.758;2022-09-12T07:00:15;16.30;99.90
74901;DHT22;63461;51.416;6.758;2022-09-12T07:02:41;16.40;99.90
74901;DHT22;63461;51.416;6.758;2022-09-12T07:05:06;16.40;99.90
74901;DHT22;63461;51.416;6.758;2022-09-12T07:07:33;16.50;99.90
74901;DHT22;63461;51.416;6.758;2022-09-12T07:10:00;16.60;99.90
74901;DHT22;63461;51.416;6.758;2022-09-12T07:12:27;16.60;99.90
74901;DHT22;63461;51.416;6.758;2022-09-12T07:14:54;16.60;99.90
74901;DHT22;63461;51.416;6.758;2022-09-12T07:17:19;16.70;99.90
74901;DHT22;63461;51.416;6.758;2022-09-12T07:19:45;16.70;99.90
74901;DHT22;63461;51.416;6.758;2022-09-12T07:22:12;16.70;99.90
74901;DHT22;63461;51.416;6.758;2022-09-12T07:24:37;16.80;99.90
74901;DHT22;63461;51.416;6.758;2022-09-12T07:27:04;16.80;99.90
74901;DHT22;63461;51.416;6.758;2022-09-12T07:29:30;16.90;99.90
74901;DHT22;63461;51.416;6.758;2022-09-12T07:31:56;17.00;99.90
74901;DHT22;63461;51.416;6.758;2022-09-12T07:34:21;17.00;99.90
74901;DHT22;63461;51.416;6.758;2022-09-12T07:36:47;17.10;99.90
74901;DHT22;63461;51.416;6.758;2022-09-12T07:39:13;17.10;99.90
74901;DHT22;63461;51.416;6.758;2022-09-12T07:41:38;17.20;99.90
74901;DHT22;63461;51.416;6.758;2022-09-12T07:44:04;17.20;99.90
74901;DHT22;63461;51.416;6.758;2022-09-12T07:46:33;17.30;99.90
74901;DHT22;63461;51.416;6.758;2022-09-12T07:49:00;17.30;99.90
74901;DHT22;63461;51.416;6.758;2022-09-12T07:51:28;17.40;99.90
74901;DHT22;63461;51.416;6.758;2022-09-12T07:53:54;17.40;99.90
74901;DHT22;63461;51.416;6.758;2022-09-12T07:56:21;17.40;99.90
74901;DHT22;63461;51.416;6.758;2022-09-12T07:58:47;17.40;99.90
74901;DHT22;63461;51.416;6.758;2022-09-12T08:01:15;17.40;99.90
74901;DHT22;63461;51.416;6.758;2022-09-12T08:03:43;17.40;99.90
74901;DHT22;63461;51.416;6.758;2022-09-12T08:06:17;17.40;99.90
74901;DHT22;63461;51.416;6.758;2022-09-12T08:08:49;17.30;99.90
74901;DHT22;63461;51.416;6.758;2022-09-12T08:11:17;17.30;99.90
74901;DHT22;63461;51.416;6.758;2022-09-12T08:13:44;17.20;99.90
74901;DHT22;63461;51.416;6.758;2022-09-12T08:16:12;17.30;99.90
74901;DHT22;63461;51.416;6.758;2022-09-12T08:18:38;17.30;99.90
74901;DHT22;63461;51.416;6.758;2022-09-12T08:21:06;17.30;99.90
74901;DHT22;63461;51.416;6.758;2022-09-12T08:23:33;17.30;99.90
74901;DHT22;63461;51.416;6.758;2022-09-12T08:26:03;17.40;99.90
74901;DHT22;63461;51.416;6.758;2022-09-12T08:28:30;17.50;99.90
74901;DHT22;63461;51.416;6.758;2022-09-12T08:31:01;17.60;99.90
74901;DHT22;63461;51.416;6.758;2022-09-12T08:33:28;17.70;99.90
74901;DHT22;63461;51.416;6.758;2022-09-12T08:36:11;17.80;99.90
74901;DHT22;63461;51.416;6.758;2022-09-12T08:38:40;17.90;99.90
74901;DHT22;63461;51.416;6.758;2022-09-12T08:46:46;18.00;99.90
74901;DHT22;63461;51.416;6.758;2022-09-12T08:49:26;18.00;99.90
74901;DHT22;63461;51.416;6.758;2022-09-12T08:51:54;18.00;99.90
74901;DHT22;63461;51.416;6.758;2022-09-12T08:54:25;18.10;99.90
74901;DHT22;63461;51.416;6.758;2022-09-12T08:56:57;18.10;99.90
74901;DHT22;63461;51.416;6.758;2022-09-12T08:59:27;18.20;99.90
74901;DHT22;63461;51.416;6.758;2022-09-12T09:01:56;18.20;99.90
74901;DHT22;63461;51.416;6.758;2022-09-12T09:16:31;18.50;99.90
74901;DHT22;63461;51.416;6.758;2022-09-12T09:19:01;18.60;99.90
74901;DHT22;63461;51.416;6.758;2022-09-12T09:21:36;18.60;99.90
74901;DHT22;63461;51.416;6.758;2022-09-12T09:24:08;18.60;99.90
74901;DHT22;63461;51.416;6.758;2022-09-12T09:26:38;18.60;99.90
74901;DHT22;63461;51.416;6.758;2022-09-12T09:29:12;18.60;99.90
74901;DHT22;63461;51.416;6.758;2022-09-12T09:31:41;18.70;99.90
74901;DHT22;63461;51.416;6.758;2022-09-12T09:34:27;18.70;99.90
74901;DHT22;63461;51.416;6.758;2022-09-12T09:42:43;18.80;99.90
74901;DHT22;63461;51.416;6.758;2022-09-12T09:45:16;18.90;99.90
74901;DHT22;63461;51.416;6.758;2022-09-12T09:47:49;18.90;99.90
74901;DHT22;63461;51.416;6.758;2022-09-12T09:50:16;18.90;99.90
74901;DHT22;63461;51.416;6.758;2022-09-12T09:52:44;18.90;99.90
74901;DHT22;63461;51.416;6.758;2022-09-12T09:55:16;19.00;99.90
74901;DHT22;63461;51.416;6.758;2022-09-12T09:57:45;19.00;99.90
74901;DHT22;63461;51.416;6.758;2022-09-12T10:00:24;19.00;99.90
74901;DHT22;63461;51.416;6.758;2022-09-12T10:03:46;19.00;99.90
74901;DHT22;63461;51.416;6.758;2022-09-12T10:05:53;19.00;99.90
74901;DHT22;63461;51.416;6.758;2022-09-12T10:08:30;19.00;99.90
74901;DHT22;63461;51.416;6.758;2022-09-12T10:13:42;19.10;99.90
74901;DHT22;63461;51.416;6.758;2022-09-12T10:16:25;19.20;99.90
74901;DHT22;63461;51.416;6.758;2022-09-12T10:18:54;19.30;99.90
74901;DHT22;63461;51.416;6.758;2022-09-12T10:21:26;19.30;99.90
74901;DHT22;63461;51.416;6.758;2022-09-12T10:26:37;19.50;99.90
74901;DHT22;63461;51.416;6.758;2022-09-12T10:29:17;19.50;99.90
74901;DHT22;63461;51.416;6.758;2022-09-12T10:31:54;19.50;99.90
74901;DHT22;63461;51.416;6.758;2022-09-12T10:34:25;19.70;99.90
74901;DHT22;63461;51.416;6.758;2022-09-12T10:37:04;19.70;99.90
74901;DHT22;63461;51.416;6.758;2022-09-12T10:39:31;19.90;99.90
74901;DHT22;63461;51.416;6.758;2022-09-12T10:41:59;19.80;99.90
74901;DHT22;63461;51.416;6.758;2022-09-12T10:44:29;19.90;99.90
74901;DHT22;63461;51.416;6.758;2022-09-12T10:46:56;19.90;99.90
74901;DHT22;63461;51.416;6.758;2022-09-12T10:49:31;19.90;99.90
74901;DHT22;63461;51.416;6.758;2022-09-12T10:54:42;20.30;99.90
74901;DHT22;63461;51.416;6.758;2022-09-12T10:59:57;20.10;99.90
74901;DHT22;63461;51.416;6.758;2022-09-12T11:02:29;20.00;99.90
74901;DHT22;63461;51.416;6.758;2022-09-12T11:05:06;20.20;99.90
74901;DHT22;63461;51.416;6.758;2022-09-12T11:07:46;20.40;99.90
74901;DHT22;63461;51.416;6.758;2022-09-12T11:10:36;20.30;99.90
74901;DHT22;63461;51.416;6.758;2022-09-12T11:15:55;20.30;99.90
74901;DHT22;63461;51.416;6.758;2022-09-12T11:21:25;20.40;99.90
74901;DHT22;63461;51.416;6.758;2022-09-12T11:24:08;20.40;99.90
74901;DHT22;63461;51.416;6.758;2022-09-12T11:30:06;20.50;99.90
74901;DHT22;63461;51.416;6.758;2022-09-12T11:32:56;20.60;99.80
74901;DHT22;63461;51.416;6.758;2022-09-12T11:35:28;20.50;99.90
74901;DHT22;63461;51.416;6.758;2022-09-12T11:40:52;20.50;99.90
74901;DHT22;63461;51.416;6.758;2022-09-12T11:43:39;20.60;99.90
74901;DHT22;63461;51.416;6.758;2022-09-12T11:46:20;20.60;99.90
74901;DHT22;63461;51.416;6.758;2022-09-12T11:48:57;20.50;99.90
74901;DHT22;63461;51.416;6.758;2022-09-12T11:51:38;20.70;99.60
74901;DHT22;63461;51.416;6.758;2022-09-12T11:54:25;20.80;99.30
74901;DHT22;63461;51.416;6.758;2022-09-12T12:00:14;20.80;99.30
74901;DHT22;63461;51.416;6.758;2022-09-12T12:08:14;21.00;97.70
74901;DHT22;63461;51.416;6.758;2022-09-12T12:10:43;21.00;98.20
74901;DHT22;63461;51.416;6.758;2022-09-12T12:13:33;21.00;98.30
74901;DHT22;63461;51.416;6.758;2022-09-12T12:16:03;21.20;97.70
74901;DHT22;63461;51.416;6.758;2022-09-12T12:18:32;21.00;98.20
74901;DHT22;63461;51.416;6.758;2022-09-12T12:34:34;21.70;95.00
74901;DHT22;63461;51.416;6.758;2022-09-12T12:44:55;21.40;95.30
74901;DHT22;63461;51.416;6.758;2022-09-12T12:47:24;21.50;94.80
74901;DHT22;63461;51.416;6.758;2022-09-12T12:49:55;21.70;94.30
74901;DHT22;63461;51.416;6.758;2022-09-12T12:52:23;21.60;91.00
74901;DHT22;63461;51.416;6.758;2022-09-12T12:55:00;21.60;95.20
74901;DHT22;63461;51.416;6.758;2022-09-12T13:00:07;21.70;94.60
74901;DHT22;63461;51.416;6.758;2022-09-12T13:02:39;21.60;92.10
74901;DHT22;63461;51.416;6.758;2022-09-12T13:05:16;21.50;90.90
74901;DHT22;63461;51.416;6.758;2022-09-12T13:07:43;21.70;90.50
74901;DHT22;63461;51.416;6.758;2022-09-12T13:10:24;21.60;90.80
74901;DHT22;63461;51.416;6.758;2022-09-12T13:12:56;21.60;91.90
74901;DHT22;63461;51.416;6.758;2022-09-12T13:18:04;22.10;91.90
74901;DHT22;63461;51.416;6.758;2022-09-12T13:20:35;22.00;91.60
74901;DHT22;63461;51.416;6.758;2022-09-12T13:23:02;22.20;91.10
74901;DHT22;63461;51.416;6.758;2022-09-12T13:25:32;22.40;91.00
74901;DHT22;63461;51.416;6.758;2022-09-12T13:28:02;22.30;91.00
74901;DHT22;63461;51.416;6.758;2022-09-12T13:30:32;22.30;91.20
74901;DHT22;63461;51.416;6.758;2022-09-12T13:38:42;22.10;93.20
74901;DHT22;63461;51.416;6.758;2022-09-12T13:44:10;22.30;92.10
74901;DHT22;63461;51.416;6.758;2022-09-12T13:46:38;22.40;91.60
74901;DHT22;63461;51.416;6.758;2022-09-12T13:49:54;22.40;92.30
74901;DHT22;63461;51.416;6.758;2022-09-12T13:52:22;22.20;93.10
74901;DHT22;63461;51.416;6.758;2022-09-12T13:54:55;22.30;92.10
74901;DHT22;63461;51.416;6.758;2022-09-12T13:57:33;22.40;91.60
74901;DHT22;63461;51.416;6.758;2022-09-12T14:00:05;22.30;91.90
74901;DHT22;63461;51.416;6.758;2022-09-12T14:02:35;22.20;91.80
74901;DHT22;63461;51.416;6.758;2022-09-12T14:05:19;22.20;92.00
74901;DHT22;63461;51.416;6.758;2022-09-12T14:07:57;22.40;91.80
74901;DHT22;63461;51.416;6.758;2022-09-12T14:10:37;22.50;91.20
74901;DHT22;63461;51.416;6.758;2022-09-12T14:13:19;22.50;91.00
74901;DHT22;63461;51.416;6.758;2022-09-12T14:15:47;22.50;91.00
74901;DHT22;63461;51.416;6.758;2022-09-12T14:18:23;22.50;90.90
74901;DHT22;63461;51.416;6.758;2022-09-12T14:20:50;22.30;91.20
74901;DHT22;63461;51.416;6.758;2022-09-12T14:23:28;22.40;90.90
74901;DHT22;63461;51.416;6.758;2022-09-12T14:25:55;22.50;90.70
74901;DHT22;63461;51.416;6.758;2022-09-12T14:28:22;22.50;91.10
74901;DHT22;63461;51.416;6.758;2022-09-12T14:31:03;22.50;91.40
74901;DHT22;63461;51.416;6.758;2022-09-12T14:33:33;22.60;91.40
74901;DHT22;63461;51.416;6.758;2022-09-12T14:39:15;22.30;92.70
74901;DHT22;63461;51.416;6.758;2022-09-12T14:41:42;22.30;92.00
74901;DHT22;63461;51.416;6.758;2022-09-12T14:44:23;22.60;91.10
74901;DHT22;63461;51.416;6.758;2022-09-12T14:46:51;22.60;90.90
74901;DHT22;63461;51.416;6.758;2022-09-12T14:49:28;22.50;91.50
74901;DHT22;63461;51.416;6.758;2022-09-12T14:52:04;22.50;91.60
74901;DHT22;63461;51.416;6.758;2022-09-12T14:56:59;22.60;91.60
74901;DHT22;63461;51.416;6.758;2022-09-12T14:59:37;22.60;91.30
74901;DHT22;63461;51.416;6.758;2022-09-12T15:07:33;22.40;92.30
74901;DHT22;63461;51.416;6.758;2022-09-12T15:12:40;22.50;92.30
74901;DHT22;63461;51.416;6.758;2022-09-12T15:15:13;22.60;92.70
74901;DHT22;63461;51.416;6.758;2022-09-12T15:17:39;22.40;93.80
74901;DHT22;63461;51.416;6.758;2022-09-12T15:20:06;22.40;94.00
74901;DHT22;63461;51.416;6.758;2022-09-12T15:22:32;22.30;93.80
74901;DHT22;63461;51.416;6.758;2022-09-12T15:24:59;22.20;94.50
74901;DHT22;63461;51.416;6.758;2022-09-12T15:27:25;22.20;93.80
74901;DHT22;63461;51.416;6.758;2022-09-12T15:29:52;22.40;93.60
74901;DHT22;63461;51.416;6.758;2022-09-12T15:32:28;22.50;93.20
74901;DHT22;63461;51.416;6.758;2022-09-12T15:34:54;22.50;93.10
74901;DHT22;63461;51.416;6.758;2022-09-12T15:37:22;22.40;92.70
74901;DHT22;63461;51.416;6.758;2022-09-12T15:39:49;22.40;93.30
74901;DHT22;63461;51.416;6.758;2022-09-12T15:42:16;22.20;94.40
74901;DHT22;63461;51.416;6.758;2022-09-12T15:44:42;22.20;94.60
74901;DHT22;63461;51.416;6.758;2022-09-12T15:47:12;22.30;94.10
74901;DHT22;63461;51.416;6.758;2022-09-12T15:49:41;22.30;94.20
74901;DHT22;63461;51.416;6.758;2022-09-12T15:52:10;22.40;94.60
74901;DHT22;63461;51.416;6.758;2022-09-12T15:54:38;22.40;94.80
74901;DHT22;63461;51.416;6.758;2022-09-12T15:57:04;22.40;94.70
74901;DHT22;63461;51.416;6.758;2022-09-12T15:59:29;22.40;94.90
74901;DHT22;63461;51.416;6.758;2022-09-12T16:01:55;22.30;95.60
74901;DHT22;63461;51.416;6.758;2022-09-12T16:04:23;22.20;96.00
74901;DHT22;63461;51.416;6.758;2022-09-12T16:06:50;22.20;96.10
74901;DHT22;63461;51.416;6.758;2022-09-12T16:09:16;22.30;95.40
74901;DHT22;63461;51.416;6.758;2022-09-12T16:11:43;22.30;95.50
74901;DHT22;63461;51.416;6.758;2022-09-12T16:14:13;22.20;95.60
74901;DHT22;63461;51.416;6.758;2022-09-12T16:16:39;22.10;95.70
74901;DHT22;63461;51.416;6.758;2022-09-12T16:19:05;22.20;95.50
74901;DHT22;63461;51.416;6.758;2022-09-12T16:28:59;22.20;80.10
74901;DHT22;63461;51.416;6.758;2022-09-12T16:31:25;22.30;81.30
74901;DHT22;63461;51.416;6.758;2022-09-12T16:33:51;22.20;81.60
74901;DHT22;63461;51.416;6.758;2022-09-12T16:36:18;22.20;81.60
74901;DHT22;63461;51.416;6.758;2022-09-12T16:38:46;22.20;81.20
74901;DHT22;63461;51.416;6.758;2022-09-12T16:41:14;22.10;80.80
74901;DHT22;63461;51.416;6.758;2022-09-12T16:43:40;22.10;81.40
74901;DHT22;63461;51.416;6.758;2022-09-12T16:46:12;22.10;81.70
74901;DHT22;63461;51.416;6.758;2022-09-12T16:48:42;22.00;82.90
74901;DHT22;63461;51.416;6.758;2022-09-12T16:51:09;22.00;84.40
74901;DHT22;63461;51.416;6.758;2022-09-12T16:53:36;22.00;85.10
74901;DHT22;63461;51.416;6.758;2022-09-12T16:56:03;21.90;82.60
74901;DHT22;63461;51.416;6.758;2022-09-12T16:58:36;21.90;83.00
74901;DHT22;63461;51.416;6.758;2022-09-12T17:01:08;21.80;83.40
74901;DHT22;63461;51.416;6.758;2022-09-12T17:03:34;21.70;83.50
74901;DHT22;63461;51.416;6.758;2022-09-12T17:06:08;21.70;83.40
74901;DHT22;63461;51.416;6.758;2022-09-12T17:08:38;21.70;83.90
74901;DHT22;63461;51.416;6.758;2022-09-12T17:11:10;21.60;83.80
74901;DHT22;63461;51.416;6.758;2022-09-12T17:13:36;21.60;84.30
74901;DHT22;63461;51.416;6.758;2022-09-12T17:16:08;21.50;84.30
74901;DHT22;63461;51.416;6.758;2022-09-12T17:18:36;21.50;84.90
74901;DHT22;63461;51.416;6.758;2022-09-12T17:21:01;21.50;84.80
74901;DHT22;63461;51.416;6.758;2022-09-12T17:23:27;21.40;85.20
74901;DHT22;63461;51.416;6.758;2022-09-12T17:25:54;21.40;85.90
74901;DHT22;63461;51.416;6.758;2022-09-12T17:28:20;21.30;86.00
74901;DHT22;63461;51.416;6.758;2022-09-12T17:30:46;21.30;86.40
74901;DHT22;63461;51.416;6.758;2022-09-12T17:33:18;21.20;86.80
74901;DHT22;63461;51.416;6.758;2022-09-12T17:35:44;21.10;87.00
74901;DHT22;63461;51.416;6.758;2022-09-12T17:38:10;21.10;87.00
74901;DHT22;63461;51.416;6.758;2022-09-12T17:40:36;21.00;87.50
74901;DHT22;63461;51.416;6.758;2022-09-12T17:43:02;20.90;87.90
74901;DHT22;63461;51.416;6.758;2022-09-12T17:45:28;20.90;88.20
74901;DHT22;63461;51.416;6.758;2022-09-12T17:47:54;20.80;88.70
74901;DHT22;63461;51.416;6.758;2022-09-12T17:50:20;20.80;88.90
74901;DHT22;63461;51.416;6.758;2022-09-12T17:52:46;20.70;89.10
74901;DHT22;63461;51.416;6.758;2022-09-12T17:55:12;20.70;89.40
74901;DHT22;63461;51.416;6.758;2022-09-12T17:57:40;20.60;90.00
74901;DHT22;63461;51.416;6.758;2022-09-12T18:00:06;20.60;90.30
74901;DHT22;63461;51.416;6.758;2022-09-12T18:02:37;20.60;90.90
74901;DHT22;63461;51.416;6.758;2022-09-12T18:05:03;20.50;90.80
74901;DHT22;63461;51.416;6.758;2022-09-12T18:07:30;20.50;90.90
74901;DHT22;63461;51.416;6.758;2022-09-12T18:09:57;20.40;90.90
74901;DHT22;63461;51.416;6.758;2022-09-12T18:12:23;20.40;91.10
74901;DHT22;63461;51.416;6.758;2022-09-12T18:14:49;20.40;91.00
74901;DHT22;63461;51.416;6.758;2022-09-12T18:17:15;20.40;91.20
74901;DHT22;63461;51.416;6.758;2022-09-12T18:19:41;20.30;91.40
74901;DHT22;63461;51.416;6.758;2022-09-12T18:22:07;20.30;91.50
74901;DHT22;63461;51.416;6.758;2022-09-12T18:24:34;20.20;91.70